sensor_id;sensor_type;location;lat;lon;timestamp;temperature;humidity
10247;DHT22;5168;47.854;7.944;2024-02-21T00:06:38;1.50;99.90
10247;DHT22;5168;47.854;7.944;2024-02-21T00:09:04;1.70;99.90
10247;DHT22;5168;47.854;7.944;2024-02-21T00:23:44;1.50;99.90
10247;DHT22;5168;47.854;7.944;2024-02-21T00:26:12;1.40;99.90
10247;DHT22;5168;47.854;7.944;2024-02-21T00:35:56;1.40;99.90
10247;DHT22;5168;47.854;7.944;2024-02-21T00:38:22;1.50;99.90
10247;DHT22;5168;47.854;7.944;2024-02-21T00:40:47;1.70;99.90
10247;DHT22;5168;47.854;7.944;2024-02-21T00:43:13;1.80;99.90
10247;DHT22;5168;47.854;7.944;2024-02-21T00:57:49;1.70;99.90
10247;DHT22;5168;47.854;7.944;2024-02-21T01:00:14;1.60;99.90
10247;DHT22;5168;47.854;7.944;2024-02-21T01:07:32;1.40;99.90
10247;DHT22;5168;47.854;7.944;2024-02-21T01:09:58;1.10;99.90
10247;DHT22;5168;47.854;7.944;2024-02-21T01:14:49;2.40;99.90
10247;DHT22;5168;47.854;7.944;2024-02-21T01:17:15;1.80;99.90
10247;DHT22;5168;47.854;7.944;2024-02-21T01:19:41;1.80;99.90
10247;DHT22;5168;47.854;7.944;2024-02-21T01:22:06;1.50;99.90
10247;DHT22;5168;47.854;7.944;2024-02-21T01:24:32;1.20;99.90
10247;DHT22;5168;47.854;7.944;2024-02-21T01:26:57;1.50;99.90
10247;DHT22;5168;47.854;7.944;2024-02-21T01:29:23;1.40;99.90
10247;DHT22;5168;47.854;7.944;2024-02-21T01:39:07;1.50;99.90
10247;DHT22;5168;47.854;7.944;2024-02-21T01:41:32;1.60;99.90
10247;DHT22;5168;47.854;7.944;2024-02-21T01:43:58;1.60;99.90
10247;DHT22;5168;47.854;7.944;2024-02-21T01:46:24;1.60;99.90
10247;DHT22;5168;47.854;7.944;2024-02-21T01:48:55;1.50;99.90
10247;DHT22;5168;47.854;7.944;2024-02-21T01:51:21;1.70;99.90
10247;DHT22;5168;47.854;7.944;2024-02-21T01:53:47;2.00;99.90
10247;DHT22;5168;47.854;7.944;2024-02-21T01:56:13;1.30;99.90
10247;DHT22;5168;47.854;7.944;2024-02-21T01:58:40;1.50;99.90
10247;DHT22;5168;47.854;7.944;2024-02-21T02:03:34;1.80;99.90
10247;DHT22;5168;47.854;7.944;2024-02-21T02:05:59;1.40;99.90
10247;DHT22;5168;47.854;7.944;2024-02-21T02:08:25;1.90;99.90
10247;DHT22;5168;47.854;7.944;2024-02-21T02:10:52;1.70;99.90
10247;DHT22;5168;47.854;7.944;2024-02-21T02:13:17;1.70;99.90
10247;DHT22;5168;47.854;7.944;2024-02-21T02:15:44;1.50;99.90
10247;DHT22;5168;47.854;7.944;2024-02-21T02:18:10;1.20;99.90
10247;DHT22;5168;47.854;7.944;2024-02-21T02:20:36;1.10;99.90
10247;DHT22;5168;47.854;7.944;2024-02-21T02:23:11;1.60;99.90
10247;DHT22;5168;47.854;7.944;2024-02-21T02:25:37;1.50;99.90
10247;DHT22;5168;47.854;7.944;2024-02-21T02:28:07;1.60;99.90
10247;DHT22;5168;47.854;7.944;2024-02-21T02:33:03;1.60;99.90
10247;DHT22;5168;47.854;7.944;2024-02-21T02:35:32;1.40;99.90
10247;DHT22;5168;47.854;7.944;2024-02-21T02:38:00;1.50;99.90
10247;DHT22;5168;47.854;7.944;2024-02-21T02:40:26;1.70;99.90
10247;DHT22;5168;47.854;7.944;2024-02-21T02:45:20;1.50;99.90
10247;DHT22;5168;47.854;7.944;2024-02-21T02:47:46;1.70;99.90
10247;DHT22;5168;47.854;7.944;2024-02-21T02:55:04;1.70;99.90
10247;DHT22;5168;47.854;7.944;2024-02-21T02:59:56;1.40;99.90
10247;DHT22;5168;47.854;7.944;2024-02-21T03:02:22;1.70;99.90
10247;DHT22;5168;47.854;7.944;2024-02-21T03:04:48;1.80;99.90
10247;DHT22;5168;47.854;7.944;2024-02-21T03:07:14;1.90;99.90
10247;DHT22;5168;47.854;7.944;2024-02-21T03:09:40;1.60;99.90
10247;DHT22;5168;47.854;7.944;2024-02-21T03:12:06;1.70;99.90
10247;DHT22;5168;47.854;7.944;2024-02-21T03:14:32;1.70;99.90
10247;DHT22;5168;47.854;7.944;2024-02-21T03:16:58;1.60;99.90
10247;DHT22;5168;47.854;7.944;2024-02-21T03:19:24;1.60;99.90
10247;DHT22;5168;47.854;7.944;2024-02-21T03:21:49;1.60;99.90
10247;DHT22;5168;47.854;7.944;2024-02-21T03:24:21;1.60;99.90
10247;DHT22;5168;47.854;7.944;2024-02-21T03:29:15;1.60;99.90
10247;DHT22;5168;47.854;7.944;2024-02-21T03:31:41;1.70;99.90
10247;DHT22;5168;47.854;7.944;2024-02-21T03:36:33;1.70;99.90
10247;DHT22;5168;47.854;7.944;2024-02-21T03:41:25;1.30;99.90
10247;DHT22;5168;47.854;7.944;2024-02-21T03:43:50;1.40;99.90
10247;DHT22;5168;47.854;7.944;2024-02-21T03:51:08;1.80;99.90
10247;DHT22;5168;47.854;7.944;2024-02-21T03:53:33;1.40;99.90
10247;DHT22;5168;47.854;7.944;2024-02-21T03:56:02;1.60;99.90
10247;DHT22;5168;47.854;7.944;2024-02-21T03:58:32;1.30;99.90
10247;DHT22;5168;47.854;7.944;2024-02-21T04:01:00;1.20;99.90
10247;DHT22;5168;47.854;7.944;2024-02-21T04:05:52;1.50;99.90
10247;DHT22;5168;47.854;7.944;2024-02-21T04:08:18;1.20;99.90
10247;DHT22;5168;47.854;7.944;2024-02-21T04:15:35;1.20;99.90
10247;DHT22;5168;47.854;7.944;2024-02-21T04:20:28;1.20;99.90
10247;DHT22;5168;47.854;7.944;2024-02-21T04:22:54;1.30;99.90
10247;DHT22;5168;47.854;7.944;2024-02-21T04:25:20;1.30;99.90
10247;DHT22;5168;47.854;7.944;2024-02-21T04:27:46;1.30;99.90
10247;DHT22;5168;47.854;7.944;2024-02-21T04:32:38;1.20;99.90
10247;DHT22;5168;47.854;7.944;2024-02-21T04:35:04;1.20;99.90
10247;DHT22;5168;47.854;7.944;2024-02-21T04:47:14;1.30;99.90
10247;DHT22;5168;47.854;7.944;2024-02-21T04:49:40;1.30;99.90
10247;DHT22;5168;47.854;7.944;2024-02-21T04:52:05;1.40;99.90
10247;DHT22;5168;47.854;7.944;2024-02-21T04:59:23;1.50;99.90
10247;DHT22;5168;47.854;7.944;2024-02-21T05:01:48;1.50;99.90
10247;DHT22;5168;47.854;7.944;2024-02-21T05:04:14;1.20;99.90
10247;DHT22;5168;47.854;7.944;2024-02-21T05:06:43;1.20;99.90
10247;DHT22;5168;47.854;7.944;2024-02-21T05:09:09;0.90;99.90
10247;DHT22;5168;47.854;7.944;2024-02-21T05:11:38;1.30;99.90
10247;DHT22;5168;47.854;7.944;2024-02-21T05:14:04;1.10;99.90
10247;DHT22;5168;47.854;7.944;2024-02-21T05:16:30;1.10;99.90
10247;DHT22;5168;47.854;7.944;2024-02-21T05:18:56;1.20;99.90
10247;DHT22;5168;47.854;7.944;2024-02-21T05:21:25;1.30;99.90
10247;DHT22;5168;47.854;7.944;2024-02-21T05:23:51;1.10;99.90
10247;DHT22;5168;47.854;7.944;2024-02-21T05:26:21;0.90;99.90
10247;DHT22;5168;47.854;7.944;2024-02-21T05:28:48;0.70;99.90
10247;DHT22;5168;47.854;7.944;2024-02-21T05:31:13;1.10;99.90
10247;DHT22;5168;47.854;7.944;2024-02-21T05:33:39;0.80;99.90
10247;DHT22;5168;47.854;7.944;2024-02-21T05:36:05;1.00;99.90
10247;DHT22;5168;47.854;7.944;2024-02-21T05:38:31;0.90;99.90
10247;DHT22;5168;47.854;7.944;2024-02-21T05:45:49;0.70;99.90
10247;DHT22;5168;47.854;7.944;2024-02-21T05:48:15;0.60;99.90
10247;DHT22;5168;47.854;7.944;2024-02-21T05:50:40;0.70;99.90
10247;DHT22;5168;47.854;7.944;2024-02-21T05:53:06;1.00;99.90
10247;DHT22;5168;47.854;7.944;2024-02-21T05:55:32;0.70;99.90
10247;DHT22;5168;47.854;7.944;2024-02-21T06:00:23;0.50;99.90
10247;DHT22;5168;47.854;7.944;2024-02-21T06:02:49;0.50;99.90
10247;DHT22;5168;47.854;7.944;2024-02-21T06:07:41;0.90;99.90
10247;DHT22;5168;47.854;7.944;2024-02-21T06:10:07;0.90;99.90
10247;DHT22;5168;47.854;7.944;2024-02-21T06:12:33;0.80;99.90
10247;DHT22;5168;47.854;7.944;2024-02-21T06:14:59;1.10;99.90
10247;DHT22;5168;47.854;7.944;2024-02-21T06:24:43;0.90;99.90
10247;DHT22;5168;47.854;7.944;2024-02-21T06:29:36;1.20;99.90
10247;DHT22;5168;47.854;7.944;2024-02-21T06:32:02;1.00;99.90
10247;DHT22;5168;47.854;7.944;2024-02-21T06:34:28;1.00;99.90
10247;DHT22;5168;47.854;7.944;2024-02-21T06:36:53;0.90;99.90
10247;DHT22;5168;47.854;7.944;2024-02-21T06:41:45;1.00;99.90
10247;DHT22;5168;47.854;7.944;2024-02-21T06:44:10;0.80;99.90
10247;DHT22;5168;47.854;7.944;2024-02-21T06:46:36;1.00;99.90
10247;DHT22;5168;47.854;7.944;2024-02-21T06:49:02;1.10;99.90
10247;DHT22;5168;47.854;7.944;2024-02-21T06:51:31;0.90;99.90
10247;DHT22;5168;47.854;7.944;2024-02-21T06:53:57;1.10;99.90
10247;DHT22;5168;47.854;7.944;2024-02-21T06:56:24;1.20;99.90
10247;DHT22;5168;47.854;7.944;2024-02-21T07:08:38;1.50;99.90
10247;DHT22;5168;47.854;7.944;2024-02-21T07:11:04;1.70;99.90
10247;DHT22;5168;47.854;7.944;2024-02-21T07:13:30;1.90;99.90
10247;DHT22;5168;47.854;7.944;2024-02-21T07:15:56;1.60;99.90
10247;DHT22;5168;47.854;7.944;2024-02-21T07:18:21;2.00;99.90
10247;DHT22;5168;47.854;7.944;2024-02-21T07:25:39;2.50;99.90
10247;DHT22;5168;47.854;7.944;2024-02-21T07:28:05;1.90;99.90
10247;DHT22;5168;47.854;7.944;2024-02-21T07:30:31;1.90;99.90
10247;DHT22;5168;47.854;7.944;2024-02-21T07:32:56;2.80;99.90
10247;DHT22;5168;47.854;7.944;2024-02-21T07:35:22;2.70;99.90
10247;DHT22;5168;47.854;7.944;2024-02-21T07:40:14;2.90;99.90
10247;DHT22;5168;47.854;7.944;2024-02-21T07:42:40;2.60;99.90
10247;DHT22;5168;47.854;7.944;2024-02-21T07:45:07;4.20;99.90
10247;DHT22;5168;47.854;7.944;2024-02-21T07:47:33;3.60;99.90
10247;DHT22;5168;47.854;7.944;2024-02-21T07:49:58;3.30;99.90
10247;DHT22;5168;47.854;7.944;2024-02-21T07:57:16;3.70;99.90
10247;DHT22;5168;47.854;7.944;2024-02-21T07:59:42;3.70;99.90
10247;DHT22;5168;47.854;7.944;2024-02-21T08:02:07;3.90;99.90
10247;DHT22;5168;47.854;7.944;2024-02-21T08:04:33;3.50;99.90
10247;DHT22;5168;47.854;7.944;2024-02-21T08:09:28;3.80;99.90
10247;DHT22;5168;47.854;7.944;2024-02-21T08:11:54;4.20;99.90
10247;DHT22;5168;47.854;7.944;2024-02-21T08:14:19;3.90;99.90
10247;DHT22;5168;47.854;7.944;2024-02-21T08:19:11;4.40;99.90
10247;DHT22;5168;47.854;7.944;2024-02-21T08:21:37;4.00;99.90
10247;DHT22;5168;47.854;7.944;2024-02-21T08:26:28;4.70;99.90
10247;DHT22;5168;47.854;7.944;2024-02-21T08:28:56;4.30;99.90
10247;DHT22;5168;47.854;7.944;2024-02-21T08:31:25;5.00;99.90
10247;DHT22;5168;47.854;7.944;2024-02-21T08:33:59;5.10;99.90
10247;DHT22;5168;47.854;7.944;2024-02-21T08:36:32;5.00;99.90
10247;DHT22;5168;47.854;7.944;2024-02-21T08:38:58;5.20;99.90
10247;DHT22;5168;47.854;7.944;2024-02-21T08:41:24;5.40;99.90
10247;DHT22;5168;47.854;7.944;2024-02-21T08:43:53;5.30;99.90
10247;DHT22;5168;47.854;7.944;2024-02-21T08:46:25;5.50;99.90
10247;DHT22;5168;47.854;7.944;2024-02-21T08:51:18;6.10;99.90
10247;DHT22;5168;47.854;7.944;2024-02-21T08:56:10;6.60;99.90
10247;DHT22;5168;47.854;7.944;2024-02-21T08:58:36;6.00;99.90
10247;DHT22;5168;47.854;7.944;2024-02-21T09:01:03;6.70;99.90
10247;DHT22;5168;47.854;7.944;2024-02-21T09:03:31;6.60;99.90
10247;DHT22;5168;47.854;7.944;2024-02-21T09:10:50;6.50;99.90
10247;DHT22;5168;47.854;7.944;2024-02-21T09:13:16;6.60;99.90
10247;DHT22;5168;47.854;7.944;2024-02-21T09:15:42;6.50;99.90
10247;DHT22;5168;47.854;7.944;2024-02-21T09:27:54;7.70;99.90
10247;DHT22;5168;47.854;7.944;2024-02-21T09:30:19;6.90;99.90
10247;DHT22;5168;47.854;7.944;2024-02-21T09:32:45;7.30;99.90
10247;DHT22;5168;47.854;7.944;2024-02-21T09:37:38;7.80;99.90
10247;DHT22;5168;47.854;7.944;2024-02-21T09:40:04;7.50;99.90
10247;DHT22;5168;47.854;7.944;2024-02-21T09:42:41;7.90;99.90
10247;DHT22;5168;47.854;7.944;2024-02-21T09:45:20;8.40;99.90
10247;DHT22;5168;47.854;7.944;2024-02-21T09:50:43;8.40;99.30
10247;DHT22;5168;47.854;7.944;2024-02-21T09:53:12;8.30;99.90
10247;DHT22;5168;47.854;7.944;2024-02-21T09:55:38;8.90;99.90
10247;DHT22;5168;47.854;7.944;2024-02-21T09:58:07;8.60;98.10
10247;DHT22;5168;47.854;7.944;2024-02-21T10:00:33;8.10;99.90
10247;DHT22;5168;47.854;7.944;2024-02-21T10:03:00;8.20;99.90
10247;DHT22;5168;47.854;7.944;2024-02-21T10:10:19;8.90;99.90
10247;DHT22;5168;47.854;7.944;2024-02-21T10:12:50;8.60;99.90
10247;DHT22;5168;47.854;7.944;2024-02-21T10:15:20;9.10;99.90
10247;DHT22;5168;47.854;7.944;2024-02-21T10:17:49;9.40;99.90
10247;DHT22;5168;47.854;7.944;2024-02-21T10:20:15;9.40;99.90
10247;DHT22;5168;47.854;7.944;2024-02-21T10:22:42;9.60;99.90
10247;DHT22;5168;47.854;7.944;2024-02-21T10:25:11;9.60;99.20
10247;DHT22;5168;47.854;7.944;2024-02-21T10:27:38;9.70;99.90
10247;DHT22;5168;47.854;7.944;2024-02-21T10:30:14;9.90;99.90
10247;DHT22;5168;47.854;7.944;2024-02-21T10:32:55;10.50;99.90
10247;DHT22;5168;47.854;7.944;2024-02-21T10:35:32;10.20;98.30
10247;DHT22;5168;47.854;7.944;2024-02-21T10:37:58;10.40;99.90
10247;DHT22;5168;47.854;7.944;2024-02-21T10:40:28;10.40;98.90
10247;DHT22;5168;47.854;7.944;2024-02-21T10:43:01;10.10;96.30
10247;DHT22;5168;47.854;7.944;2024-02-21T10:45:31;10.80;97.20
10247;DHT22;5168;47.854;7.944;2024-02-21T10:50:41;10.20;95.70
10247;DHT22;5168;47.854;7.944;2024-02-21T10:56:32;10.00;98.40
10247;DHT22;5168;47.854;7.944;2024-02-21T10:59:07;10.30;95.20
10247;DHT22;5168;47.854;7.944;2024-02-21T11:01:33;10.30;97.20
10247;DHT22;5168;47.854;7.944;2024-02-21T11:04:05;10.80;96.60
10247;DHT22;5168;47.854;7.944;2024-02-21T11:06:33;10.60;96.30
10247;DHT22;5168;47.854;7.944;2024-02-21T11:09:07;10.70;95.70
10247;DHT22;5168;47.854;7.944;2024-02-21T11:11:38;10.50;95.80
10247;DHT22;5168;47.854;7.944;2024-02-21T11:14:22;10.90;96.40
10247;DHT22;5168;47.854;7.944;2024-02-21T11:16:47;10.70;97.30
10247;DHT22;5168;47.854;7.944;2024-02-21T11:19:20;11.00;92.50
10247;DHT22;5168;47.854;7.944;2024-02-21T11:24:13;11.40;93.10
10247;DHT22;5168;47.854;7.944;2024-02-21T11:26:40;11.70;90.90
10247;DHT22;5168;47.854;7.944;2024-02-21T11:29:07;13.20;92.00
10247;DHT22;5168;47.854;7.944;2024-02-21T11:31:41;11.20;94.60
10247;DHT22;5168;47.854;7.944;2024-02-21T11:34:16;11.30;90.80
10247;DHT22;5168;47.854;7.944;2024-02-21T11:36:52;11.30;94.90
10247;DHT22;5168;47.854;7.944;2024-02-21T11:39:25;11.10;95.70
10247;DHT22;5168;47.854;7.944;2024-02-21T11:42:04;10.90;94.50
10247;DHT22;5168;47.854;7.944;2024-02-21T11:44:31;10.70;91.60
10247;DHT22;5168;47.854;7.944;2024-02-21T11:46:58;11.10;95.20
10247;DHT22;5168;47.854;7.944;2024-02-21T11:49:30;10.60;94.30
10247;DHT22;5168;47.854;7.944;2024-02-21T11:52:03;11.10;94.80
10247;DHT22;5168;47.854;7.944;2024-02-21T11:54:31;10.30;94.40
10247;DHT22;5168;47.854;7.944;2024-02-21T11:56:57;10.10;94.60
10247;DHT22;5168;47.854;7.944;2024-02-21T12:01:49;10.30;91.20
10247;DHT22;5168;47.854;7.944;2024-02-21T12:04:15;10.10;90.80
10247;DHT22;5168;47.854;7.944;2024-02-21T12:06:44;9.40;95.40
10247;DHT22;5168;47.854;7.944;2024-02-21T12:09:10;10.20;95.70
10247;DHT22;5168;47.854;7.944;2024-02-21T12:16:32;9.90;93.00
10247;DHT22;5168;47.854;7.944;2024-02-21T12:18:59;9.70;96.20
10247;DHT22;5168;47.854;7.944;2024-02-21T12:21:30;9.90;96.00
10247;DHT22;5168;47.854;7.944;2024-02-21T12:24:00;9.70;93.60
10247;DHT22;5168;47.854;7.944;2024-02-21T12:26:36;9.80;96.00
10247;DHT22;5168;47.854;7.944;2024-02-21T12:29:02;9.70;96.00
10247;DHT22;5168;47.854;7.944;2024-02-21T12:31:28;10.10;94.00
10247;DHT22;5168;47.854;7.944;2024-02-21T12:33:53;9.40;95.40
10247;DHT22;5168;47.854;7.944;2024-02-21T12:36:19;9.90;95.40
10247;DHT22;5168;47.854;7.944;2024-02-21T12:41:12;10.00;94.10
10247;DHT22;5168;47.854;7.944;2024-02-21T12:43:37;10.10;93.70
10247;DHT22;5168;47.854;7.944;2024-02-21T12:50:55;10.40;92.60
10247;DHT22;5168;47.854;7.944;2024-02-21T12:53:21;10.00;90.50
10247;DHT22;5168;47.854;7.944;2024-02-21T12:55:48;10.00;92.90
10247;DHT22;5168;47.854;7.944;2024-02-21T12:58:14;10.40;92.70
10247;DHT22;5168;47.854;7.944;2024-02-21T13:00:40;10.10;92.90
10247;DHT22;5168;47.854;7.944;2024-02-21T13:03:05;9.90;91.80
10247;DHT22;5168;47.854;7.944;2024-02-21T13:08:00;9.90;88.60
10247;DHT22;5168;47.854;7.944;2024-02-21T13:10:26;9.90;91.70
10247;DHT22;5168;47.854;7.944;2024-02-21T13:17:44;9.60;92.60
10247;DHT22;5168;47.854;7.944;2024-02-21T13:20:10;9.70;86.70
10247;DHT22;5168;47.854;7.944;2024-02-21T13:22:36;9.70;89.30
10247;DHT22;5168;47.854;7.944;2024-02-21T13:37:12;9.70;89.40
10247;DHT22;5168;47.854;7.944;2024-02-21T13:39:39;9.80;86.60
10247;DHT22;5168;47.854;7.944;2024-02-21T13:44:31;9.80;80.10
10247;DHT22;5168;47.854;7.944;2024-02-21T13:46:57;9.70;88.00
10247;DHT22;5168;47.854;7.944;2024-02-21T13:49:22;9.70;89.00
10247;DHT22;5168;47.854;7.944;2024-02-21T13:51:48;9.80;85.60
10247;DHT22;5168;47.854;7.944;2024-02-21T13:54:14;9.80;87.00
10247;DHT22;5168;47.854;7.944;2024-02-21T13:56:42;9.50;88.00
10247;DHT22;5168;47.854;7.944;2024-02-21T13:59:08;9.80;82.40
10247;DHT22;5168;47.854;7.944;2024-02-21T14:01:34;9.90;79.50
10247;DHT22;5168;47.854;7.944;2024-02-21T14:06:27;10.00;86.50
10247;DHT22;5168;47.854;7.944;2024-02-21T14:08:52;9.90;85.50
10247;DHT22;5168;47.854;7.944;2024-02-21T14:23:32;9.80;87.30
10247;DHT22;5168;47.854;7.944;2024-02-21T14:25:59;9.80;86.60
10247;DHT22;5168;47.854;7.944;2024-02-21T14:30:50;9.70;80.70
10247;DHT22;5168;47.854;7.944;2024-02-21T14:33:19;9.60;77.30
10247;DHT22;5168;47.854;7.944;2024-02-21T14:38:10;9.70;85.30
10247;DHT22;5168;47.854;7.944;2024-02-21T14:40:36;9.50;87.00
10247;DHT22;5168;47.854;7.944;2024-02-21T14:43:01;9.50;85.60
10247;DHT22;5168;47.854;7.944;2024-02-21T14:50:20;9.20;86.20
10247;DHT22;5168;47.854;7.944;2024-02-21T14:52:46;8.90;86.40
10247;DHT22;5168;47.854;7.944;2024-02-21T14:55:13;9.00;78.40
10247;DHT22;5168;47.854;7.944;2024-02-21T14:57:39;9.10;86.10
10247;DHT22;5168;47.854;7.944;2024-02-21T15:00:07;9.00;78.40
10247;DHT22;5168;47.854;7.944;2024-02-21T15:05:00;8.80;80.70
10247;DHT22;5168;47.854;7.944;2024-02-21T15:09:52;9.60;81.90
10247;DHT22;5168;47.854;7.944;2024-02-21T15:17:11;8.90;75.40
10247;DHT22;5168;47.854;7.944;2024-02-21T15:19:37;8.90;80.60
10247;DHT22;5168;47.854;7.944;2024-02-21T15:22:04;9.10;82.60
10247;DHT22;5168;47.854;7.944;2024-02-21T15:24:29;8.50;82.40
10247;DHT22;5168;47.854;7.944;2024-02-21T15:31:48;9.10;80.10
10247;DHT22;5168;47.854;7.944;2024-02-21T15:34:14;9.00;81.10
10247;DHT22;5168;47.854;7.944;2024-02-21T15:39:09;8.30;83.10
10247;DHT22;5168;47.854;7.944;2024-02-21T15:41:36;8.40;80.30
10247;DHT22;5168;47.854;7.944;2024-02-21T15:46:29;8.30;85.60
10247;DHT22;5168;47.854;7.944;2024-02-21T15:48:56;8.30;85.70
10247;DHT22;5168;47.854;7.944;2024-02-21T15:51:22;8.60;80.30
10247;DHT22;5168;47.854;7.944;2024-02-21T15:53:48;8.20;84.70
10247;DHT22;5168;47.854;7.944;2024-02-21T15:58:41;8.40;75.60
10247;DHT22;5168;47.854;7.944;2024-02-21T16:01:06;8.40;76.60
10247;DHT22;5168;47.854;7.944;2024-02-21T16:05:58;8.60;84.20
10247;DHT22;5168;47.854;7.944;2024-02-21T16:08:24;8.60;86.60
10247;DHT22;5168;47.854;7.944;2024-02-21T16:10:49;7.70;86.10
10247;DHT22;5168;47.854;7.944;2024-02-21T16:13:16;8.40;78.50
10247;DHT22;5168;47.854;7.944;2024-02-21T16:15:42;7.80;85.40
10247;DHT22;5168;47.854;7.944;2024-02-21T16:18:08;8.00;86.50
10247;DHT22;5168;47.854;7.944;2024-02-21T16:20:34;8.00;82.40
10247;DHT22;5168;47.854;7.944;2024-02-21T16:25:29;8.10;90.10
10247;DHT22;5168;47.854;7.944;2024-02-21T16:27:54;8.10;90.50
10247;DHT22;5168;47.854;7.944;2024-02-21T16:30:20;8.20;87.00
10247;DHT22;5168;47.854;7.944;2024-02-21T16:32:48;7.80;90.70
10247;DHT22;5168;47.854;7.944;2024-02-21T16:37:40;8.00;89.20
10247;DHT22;5168;47.854;7.944;2024-02-21T16:40:06;7.90;92.90
10247;DHT22;5168;47.854;7.944;2024-02-21T16:44:58;7.60;93.40
10247;DHT22;5168;47.854;7.944;2024-02-21T16:47:25;7.60;91.70
10247;DHT22;5168;47.854;7.944;2024-02-21T16:49:51;7.90;93.30
10247;DHT22;5168;47.854;7.944;2024-02-21T16:52:16;7.60;90.80
10247;DHT22;5168;47.854;7.944;2024-02-21T16:54:42;7.70;93.40
10247;DHT22;5168;47.854;7.944;2024-02-21T16:57:08;7.90;93.40
10247;DHT22;5168;47.854;7.944;2024-02-21T17:02:03;7.80;93.80
10247;DHT22;5168;47.854;7.944;2024-02-21T17:14:14;7.80;95.20
10247;DHT22;5168;47.854;7.944;2024-02-21T17:16:40;7.30;94.80
10247;DHT22;5168;47.854;7.944;2024-02-21T17:19:06;7.30;93.30
10247;DHT22;5168;47.854;7.944;2024-02-21T17:21:32;7.60;91.70
10247;DHT22;5168;47.854;7.944;2024-02-21T17:28:51;7.80;95.50
10247;DHT22;5168;47.854;7.944;2024-02-21T17:31:17;7.50;95.80
10247;DHT22;5168;47.854;7.944;2024-02-21T17:33:43;7.20;95.70
10247;DHT22;5168;47.854;7.944;2024-02-21T17:36:08;7.50;93.60
10247;DHT22;5168;47.854;7.944;2024-02-21T17:48:22;7.40;93.60
10247;DHT22;5168;47.854;7.944;2024-02-21T17:50:47;7.50;97.00
10247;DHT22;5168;47.854;7.944;2024-02-21T18:00:32;7.80;98.30
10247;DHT22;5168;47.854;7.944;2024-02-21T18:02:58;8.00;98.80
10247;DHT22;5168;47.854;7.944;2024-02-21T18:05:25;7.20;98.50
10247;DHT22;5168;47.854;7.944;2024-02-21T18:07:51;7.30;99.20
10247;DHT22;5168;47.854;7.944;2024-02-21T18:10:16;7.30;99.40
10247;DHT22;5168;47.854;7.944;2024-02-21T18:12:42;7.40;97.40
10247;DHT22;5168;47.854;7.944;2024-02-21T18:15:08;7.80;99.90
10247;DHT22;5168;47.854;7.944;2024-02-21T18:17:35;7.90;99.90
10247;DHT22;5168;47.854;7.944;2024-02-21T18:22:28;7.90;99.90
10247;DHT22;5168;47.854;7.944;2024-02-21T18:29:48;7.30;99.90
10247;DHT22;5168;47.854;7.944;2024-02-21T18:32:13;7.20;99.90
10247;DHT22;5168;47.854;7.944;2024-02-21T18:34:39;8.20;99.60
10247;DHT22;5168;47.854;7.944;2024-02-21T18:44:22;7.30;99.90
10247;DHT22;5168;47.854;7.944;2024-02-21T18:46:48;7.70;99.90
10247;DHT22;5168;47.854;7.944;2024-02-21T18:49:15;8.10;99.90
10247;DHT22;5168;47.854;7.944;2024-02-21T18:51:41;8.10;99.90
10247;DHT22;5168;47.854;7.944;2024-02-21T18:54:06;7.70;99.90
10247;DHT22;5168;47.854;7.944;2024-02-21T19:03:51;8.20;99.90
10247;DHT22;5168;47.854;7.944;2024-02-21T19:06:16;8.10;99.90
10247;DHT22;5168;47.854;7.944;2024-02-21T19:11:10;8.00;99.90
10247;DHT22;5168;47.854;7.944;2024-02-21T19:13:36;8.10;98.40
10247;DHT22;5168;47.854;7.944;2024-02-21T19:16:02;8.50;99.90
10247;DHT22;5168;47.854;7.944;2024-02-21T19:23:20;7.80;99.90
10247;DHT22;5168;47.854;7.944;2024-02-21T19:25:46;7.60;99.90
10247;DHT22;5168;47.854;7.944;2024-02-21T19:28:12;8.50;99.90
10247;DHT22;5168;47.854;7.944;2024-02-21T19:30:38;8.20;99.90
10247;DHT22;5168;47.854;7.944;2024-02-21T19:33:04;7.70;99.90
10247;DHT22;5168;47.854;7.944;2024-02-21T19:35:30;8.40;99.90
10247;DHT22;5168;47.854;7.944;2024-02-21T19:37:58;8.30;99.90
10247;DHT22;5168;47.854;7.944;2024-02-21T19:40:28;7.80;99.80
10247;DHT22;5168;47.854;7.944;2024-02-21T19:42:54;7.60;99.90
10247;DHT22;5168;47.854;7.944;2024-02-21T19:45:20;7.90;99.90
10247;DHT22;5168;47.854;7.944;2024-02-21T19:47:46;8.30;99.70
10247;DHT22;5168;47.854;7.944;2024-02-21T19:52:43;7.70;99.90
10247;DHT22;5168;47.854;7.944;2024-02-21T19:55:09;7.80;99.90
10247;DHT22;5168;47.854;7.944;2024-02-21T19:57:34;8.30;99.90
10247;DHT22;5168;47.854;7.944;2024-02-21T20:17:06;7.90;99.90
10247;DHT22;5168;47.854;7.944;2024-02-21T20:19:31;8.50;99.90
10247;DHT22;5168;47.854;7.944;2024-02-21T20:21:57;7.90;98.50
10247;DHT22;5168;47.854;7.944;2024-02-21T20:29:15;8.40;99.90
10247;DHT22;5168;47.854;7.944;2024-02-21T20:31:42;8.40;99.90
10247;DHT22;5168;47.854;7.944;2024-02-21T20:34:11;7.50;99.90
10247;DHT22;5168;47.854;7.944;2024-02-21T20:36:37;8.10;99.90
10247;DHT22;5168;47.854;7.944;2024-02-21T20:39:02;7.80;99.90
10247;DHT22;5168;47.854;7.944;2024-02-21T20:41:28;8.10;99.90
10247;DHT22;5168;47.854;7.944;2024-02-21T20:53:38;7.90;99.90
10247;DHT22;5168;47.854;7.944;2024-02-21T20:56:04;8.30;99.90
10247;DHT22;5168;47.854;7.944;2024-02-21T20:58:30;8.30;99.90
10247;DHT22;5168;47.854;7.944;2024-02-21T21:00:55;8.20;99.90
10247;DHT22;5168;47.854;7.944;2024-02-21T21:08:14;8.10;97.20
10247;DHT22;5168;47.854;7.944;2024-02-21T21:10:39;8.20;99.90
10247;DHT22;5168;47.854;7.944;2024-02-21T21:22:54;8.20;99.50
10247;DHT22;5168;47.854;7.944;2024-02-21T21:30:12;8.20;98.10
10247;DHT22;5168;47.854;7.944;2024-02-21T21:32:38;8.00;97.20
10247;DHT22;5168;47.854;7.944;2024-02-21T21:35:06;8.20;97.20
10247;DHT22;5168;47.854;7.944;2024-02-21T21:42:24;7.90;99.90
10247;DHT22;5168;47.854;7.944;2024-02-21T21:44:50;8.20;99.90
10247;DHT22;5168;47.854;7.944;2024-02-21T21:47:17;7.80;99.90
10247;DHT22;5168;47.854;7.944;2024-02-21T21:59:27;7.90;99.90
10247;DHT22;5168;47.854;7.944;2024-02-21T22:04:20;7.80;99.90
10247;DHT22;5168;47.854;7.944;2024-02-21T22:23:47;8.40;99.90
10247;DHT22;5168;47.854;7.944;2024-02-21T22:31:12;7.90;98.50
10247;DHT22;5168;47.854;7.944;2024-02-21T22:36:06;10.10;98.90
10247;DHT22;5168;47.854;7.944;2024-02-21T22:38:32;7.80;99.90
10247;DHT22;5168;47.854;7.944;2024-02-21T22:40:58;8.10;99.90
10247;DHT22;5168;47.854;7.944;2024-02-21T22:43:24;8.10;99.90
10247;DHT22;5168;47.854;7.944;2024-02-21T22:45:49;8.20;99.90
10247;DHT22;5168;47.854;7.944;2024-02-21T22:50:42;7.80;99.60
10247;DHT22;5168;47.854;7.944;2024-02-21T22:55:34;7.60;99.90
10247;DHT22;5168;47.854;7.944;2024-02-21T23:05:17;7.80;99.90
10247;DHT22;5168;47.854;7.944;2024-02-21T23:07:43;7.20;99.90
10247;DHT22;5168;47.854;7.944;2024-02-21T23:10:09;7.90;99.90
10247;DHT22;5168;47.854;7.944;2024-02-21T23:12:34;7.90;99.90
10247;DHT22;5168;47.854;7.944;2024-02-21T23:15:02;7.60;99.90
10247;DHT22;5168;47.854;7.944;2024-02-21T23:17:28;7.60;99.90
10247;DHT22;5168;47.854;7.944;2024-02-21T23:19:53;7.60;99.90
10247;DHT22;5168;47.854;7.944;2024-02-21T23:22:19;7.10;99.90
10247;DHT22;5168;47.854;7.944;2024-02-21T23:24:46;7.60;99.90
10247;DHT22;5168;47.854;7.944;2024-02-21T23:27:11;7.30;99.90
10247;DHT22;5168;47.854;7.944;2024-02-21T23:29:37;7.80;99.90
10247;DHT22;5168;47.854;7.944;2024-02-21T23:32:03;7.50;99.90
10247;DHT22;5168;47.854;7.944;2024-02-21T23:36:55;7.10;99.90